sensor_id;sensor_type;location;lat;lon;timestamp;temperature;humidity
51839;DHT22;37886;53.174;6.368;2022-09-09T00:04:34;13.80;99.90
51839;DHT22;37886;53.174;6.368;2022-09-09T00:10:36;13.70;99.90
51839;DHT22;37886;53.174;6.368;2022-09-09T00:16:04;13.60;99.90
51839;DHT22;37886;53.174;6.368;2022-09-09T00:21:15;13.50;99.90
51839;DHT22;37886;53.174;6.368;2022-09-09T00:23:50;13.50;99.90
51839;DHT22;37886;53.174;6.368;2022-09-09T00:26:47;13.50;99.90
51839;DHT22;37886;53.174;6.368;2022-09-09T00:29:33;13.40;99.90
51839;DHT22;37886;53.174;6.368;2022-09-09T00:32:12;13.40;99.90
51839;DHT22;37886;53.174;6.368;2022-09-09T00:34:53;13.40;99.90
51839;DHT22;37886;53.174;6.368;2022-09-09T00:37:22;13.40;99.90
51839;DHT22;37886;53.174;6.368;2022-09-09T00:39:51;13.30;99.90
51839;DHT22;37886;53.174;6.368;2022-09-09T00:42:41;13.30;99.90
51839;DHT22;37886;53.174;6.368;2022-09-09T00:47:46;13.30;99.90
51839;DHT22;37886;53.174;6.368;2022-09-09T00:53:05;13.30;99.90
51839;DHT22;37886;53.174;6.368;2022-09-09T00:58:13;13.20;99.90
51839;DHT22;37886;53.174;6.368;2022-09-09T01:00:46;13.20;99.90
51839;DHT22;37886;53.174;6.368;2022-09-09T01:11:35;13.10;99.90
51839;DHT22;37886;53.174;6.368;2022-09-09T01:14:38;13.10;99.90
51839;DHT22;37886;53.174;6.368;2022-09-09T01:19:49;13.10;99.90
51839;DHT22;37886;53.174;6.368;2022-09-09T01:28:26;13.10;99.90
51839;DHT22;37886;53.174;6.368;2022-09-09T01:30:53;13.10;99.90
51839;DHT22;37886;53.174;6.368;2022-09-09T01:33:19;13.10;99.90
51839;DHT22;37886;53.174;6.368;2022-09-09T01:35:59;13.10;99.90
51839;DHT22;37886;53.174;6.368;2022-09-09T01:38:28;13.10;99.90
51839;DHT22;37886;53.174;6.368;2022-09-09T01:40:55;13.10;99.90
51839;DHT22;37886;53.174;6.368;2022-09-09T01:43:21;13.10;99.90
51839;DHT22;37886;53.174;6.368;2022-09-09T01:45:50;13.10;99.90
51839;DHT22;37886;53.174;6.368;2022-09-09T01:48:18;13.10;99.90
51839;DHT22;37886;53.174;6.368;2022-09-09T01:50:44;13.10;99.90
51839;DHT22;37886;53.174;6.368;2022-09-09T01:53:11;13.10;99.90
51839;DHT22;37886;53.174;6.368;2022-09-09T01:55:40;13.20;99.90
51839;DHT22;37886;53.174;6.368;2022-09-09T01:58:28;13.20;99.90
51839;DHT22;37886;53.174;6.368;2022-09-09T02:03:44;13.30;99.90
51839;DHT22;37886;53.174;6.368;2022-09-09T02:06:29;13.40;99.90
51839;DHT22;37886;53.174;6.368;2022-09-09T02:08:56;13.40;99.90
51839;DHT22;37886;53.174;6.368;2022-09-09T02:11:25;13.50;99.90
51839;DHT22;37886;53.174;6.368;2022-09-09T02:14:01;13.50;99.90
51839;DHT22;37886;53.174;6.368;2022-09-09T02:16:42;13.50;99.90
51839;DHT22;37886;53.174;6.368;2022-09-09T02:19:16;13.50;99.90
51839;DHT22;37886;53.174;6.368;2022-09-09T02:21:50;13.50;99.90
51839;DHT22;37886;53.174;6.368;2022-09-09T02:24:17;13.60;99.90
51839;DHT22;37886;53.174;6.368;2022-09-09T02:26:44;13.60;99.90
51839;DHT22;37886;53.174;6.368;2022-09-09T02:29:15;13.60;99.90
51839;DHT22;37886;53.174;6.368;2022-09-09T02:31:44;13.70;99.90
51839;DHT22;37886;53.174;6.368;2022-09-09T02:34:13;13.70;99.90
51839;DHT22;37886;53.174;6.368;2022-09-09T02:36:41;13.70;99.90
51839;DHT22;37886;53.174;6.368;2022-09-09T02:39:09;13.70;99.90
51839;DHT22;37886;53.174;6.368;2022-09-09T02:41:38;13.70;99.90
51839;DHT22;37886;53.174;6.368;2022-09-09T02:44:12;13.80;99.90
51839;DHT22;37886;53.174;6.368;2022-09-09T02:49:28;13.80;99.90
51839;DHT22;37886;53.174;6.368;2022-09-09T02:52:08;13.80;99.90
51839;DHT22;37886;53.174;6.368;2022-09-09T02:54:38;13.80;99.90
51839;DHT22;37886;53.174;6.368;2022-09-09T02:57:13;13.90;99.90
51839;DHT22;37886;53.174;6.368;2022-09-09T02:59:43;13.90;99.90
51839;DHT22;37886;53.174;6.368;2022-09-09T03:02:09;13.90;99.90
51839;DHT22;37886;53.174;6.368;2022-09-09T03:04:37;13.80;99.90
51839;DHT22;37886;53.174;6.368;2022-09-09T03:07:03;13.90;99.90
51839;DHT22;37886;53.174;6.368;2022-09-09T03:09:30;13.90;99.90
51839;DHT22;37886;53.174;6.368;2022-09-09T03:11:59;13.90;99.90
51839;DHT22;37886;53.174;6.368;2022-09-09T03:14:25;13.90;99.90
51839;DHT22;37886;53.174;6.368;2022-09-09T03:16:52;13.90;99.90
51839;DHT22;37886;53.174;6.368;2022-09-09T03:19:18;13.90;99.90
51839;DHT22;37886;53.174;6.368;2022-09-09T03:21:45;13.90;99.90
51839;DHT22;37886;53.174;6.368;2022-09-09T03:24:11;14.00;99.90
51839;DHT22;37886;53.174;6.368;2022-09-09T03:26:37;13.90;99.90
51839;DHT22;37886;53.174;6.368;2022-09-09T03:29:04;13.90;99.90
51839;DHT22;37886;53.174;6.368;2022-09-09T03:31:32;14.00;99.90
51839;DHT22;37886;53.174;6.368;2022-09-09T03:33:58;13.90;99.90
51839;DHT22;37886;53.174;6.368;2022-09-09T03:36:25;13.90;99.90
51839;DHT22;37886;53.174;6.368;2022-09-09T03:38:52;13.90;99.90
51839;DHT22;37886;53.174;6.368;2022-09-09T03:41:19;13.90;99.90
51839;DHT22;37886;53.174;6.368;2022-09-09T03:43:47;13.90;99.90
51839;DHT22;37886;53.174;6.368;2022-09-09T03:46:13;13.80;99.90
51839;DHT22;37886;53.174;6.368;2022-09-09T03:48:38;13.80;99.90
51839;DHT22;37886;53.174;6.368;2022-09-09T03:51:04;13.80;99.90
51839;DHT22;37886;53.174;6.368;2022-09-09T03:53:30;13.90;99.90
51839;DHT22;37886;53.174;6.368;2022-09-09T03:55:57;13.90;99.90
51839;DHT22;37886;53.174;6.368;2022-09-09T03:58:26;13.90;99.90
51839;DHT22;37886;53.174;6.368;2022-09-09T04:00:57;13.90;99.90
51839;DHT22;37886;53.174;6.368;2022-09-09T04:03:24;13.90;99.90
51839;DHT22;37886;53.174;6.368;2022-09-09T04:05:54;13.90;99.90
51839;DHT22;37886;53.174;6.368;2022-09-09T04:08:21;14.00;99.90
51839;DHT22;37886;53.174;6.368;2022-09-09T04:10:48;14.00;99.90
51839;DHT22;37886;53.174;6.368;2022-09-09T04:13:17;14.00;99.90
51839;DHT22;37886;53.174;6.368;2022-09-09T04:15:51;14.00;99.90
51839;DHT22;37886;53.174;6.368;2022-09-09T04:18:16;14.00;99.90
51839;DHT22;37886;53.174;6.368;2022-09-09T04:20:42;14.00;99.90
51839;DHT22;37886;53.174;6.368;2022-09-09T04:23:09;14.00;99.90
51839;DHT22;37886;53.174;6.368;2022-09-09T04:25:34;14.10;99.90
51839;DHT22;37886;53.174;6.368;2022-09-09T04:28:00;14.10;99.90
51839;DHT22;37886;53.174;6.368;2022-09-09T04:30:26;14.10;99.90
51839;DHT22;37886;53.174;6.368;2022-09-09T04:32:53;14.10;99.90
51839;DHT22;37886;53.174;6.368;2022-09-09T04:35:19;14.10;99.90
51839;DHT22;37886;53.174;6.368;2022-09-09T04:37:45;14.20;99.90
51839;DHT22;37886;53.174;6.368;2022-09-09T04:40:11;14.10;99.90
51839;DHT22;37886;53.174;6.368;2022-09-09T04:42:38;14.20;99.90
51839;DHT22;37886;53.174;6.368;2022-09-09T04:45:05;14.20;99.90
51839;DHT22;37886;53.174;6.368;2022-09-09T04:47:32;14.20;99.90
51839;DHT22;37886;53.174;6.368;2022-09-09T04:49:57;14.20;99.90
51839;DHT22;37886;53.174;6.368;2022-09-09T04:52:23;14.20;99.90
51839;DHT22;37886;53.174;6.368;2022-09-09T04:54:49;14.20;99.90
51839;DHT22;37886;53.174;6.368;2022-09-09T04:57:15;14.20;99.90
51839;DHT22;37886;53.174;6.368;2022-09-09T04:59:40;14.20;99.90
51839;DHT22;37886;53.174;6.368;2022-09-09T05:02:06;14.20;99.90
51839;DHT22;37886;53.174;6.368;2022-09-09T05:04:32;14.20;99.90
51839;DHT22;37886;53.174;6.368;2022-09-09T05:06:59;14.20;99.90
51839;DHT22;37886;53.174;6.368;2022-09-09T05:09:24;14.20;99.90
51839;DHT22;37886;53.174;6.368;2022-09-09T05:11:50;14.20;99.90
51839;DHT22;37886;53.174;6.368;2022-09-09T05:14:17;14.20;99.90
51839;DHT22;37886;53.174;6.368;2022-09-09T05:16:44;14.20;99.90
51839;DHT22;37886;53.174;6.368;2022-09-09T05:19:10;14.20;99.90
51839;DHT22;37886;53.174;6.368;2022-09-09T05:21:37;14.20;99.90
51839;DHT22;37886;53.174;6.368;2022-09-09T05:24:02;14.20;99.90
51839;DHT22;37886;53.174;6.368;2022-09-09T05:26:28;14.20;99.90
51839;DHT22;37886;53.174;6.368;2022-09-09T05:28:55;14.20;99.90
51839;DHT22;37886;53.174;6.368;2022-09-09T05:31:21;14.20;99.90
51839;DHT22;37886;53.174;6.368;2022-09-09T05:33:47;14.20;99.90
51839;DHT22;37886;53.174;6.368;2022-09-09T05:36:19;14.20;99.90
51839;DHT22;37886;53.174;6.368;2022-09-09T05:38:46;14.20;99.90
51839;DHT22;37886;53.174;6.368;2022-09-09T05:41:12;14.30;99.90
51839;DHT22;37886;53.174;6.368;2022-09-09T05:43:41;14.30;99.90
51839;DHT22;37886;53.174;6.368;2022-09-09T05:46:11;14.20;99.90
51839;DHT22;37886;53.174;6.368;2022-09-09T05:48:39;14.30;99.90
51839;DHT22;37886;53.174;6.368;2022-09-09T05:51:08;14.30;99.90
51839;DHT22;37886;53.174;6.368;2022-09-09T05:53:34;14.30;99.90
51839;DHT22;37886;53.174;6.368;2022-09-09T05:56:05;14.30;99.90
51839;DHT22;37886;53.174;6.368;2022-09-09T05:58:31;14.30;99.90
51839;DHT22;37886;53.174;6.368;2022-09-09T06:01:09;14.30;99.90
51839;DHT22;37886;53.174;6.368;2022-09-09T06:03:40;14.30;99.90
51839;DHT22;37886;53.174;6.368;2022-09-09T06:06:11;14.30;99.90
51839;DHT22;37886;53.174;6.368;2022-09-09T06:08:39;14.30;99.90
51839;DHT22;37886;53.174;6.368;2022-09-09T06:11:12;14.30;99.90
51839;DHT22;37886;53.174;6.368;2022-09-09T06:13:38;14.30;99.90
51839;DHT22;37886;53.174;6.368;2022-09-09T06:16:05;14.30;99.90
51839;DHT22;37886;53.174;6.368;2022-09-09T06:18:32;14.40;99.90
51839;DHT22;37886;53.174;6.368;2022-09-09T06:21:03;14.40;99.90
51839;DHT22;37886;53.174;6.368;2022-09-09T06:23:33;14.40;99.90
51839;DHT22;37886;53.174;6.368;2022-09-09T06:26:23;14.40;99.90
51839;DHT22;37886;53.174;6.368;2022-09-09T06:28:52;14.50;99.90
51839;DHT22;37886;53.174;6.368;2022-09-09T06:31:28;14.50;99.90
51839;DHT22;37886;53.174;6.368;2022-09-09T06:34:05;14.60;99.90
51839;DHT22;37886;53.174;6.368;2022-09-09T06:36:32;14.60;99.90
51839;DHT22;37886;53.174;6.368;2022-09-09T06:38:59;14.70;99.90
51839;DHT22;37886;53.174;6.368;2022-09-09T06:41:27;14.70;99.90
51839;DHT22;37886;53.174;6.368;2022-09-09T06:43:53;14.70;99.90
51839;DHT22;37886;53.174;6.368;2022-09-09T06:46:23;14.80;99.90
51839;DHT22;37886;53.174;6.368;2022-09-09T06:48:49;14.80;99.90
51839;DHT22;37886;53.174;6.368;2022-09-09T06:51:17;14.80;99.90
51839;DHT22;37886;53.174;6.368;2022-09-09T06:53:49;14.90;99.90
51839;DHT22;37886;53.174;6.368;2022-09-09T06:56:34;14.90;99.90
51839;DHT22;37886;53.174;6.368;2022-09-09T06:59:03;14.90;99.90
51839;DHT22;37886;53.174;6.368;2022-09-09T07:01:32;14.80;99.90
51839;DHT22;37886;53.174;6.368;2022-09-09T07:03:59;14.90;99.90
51839;DHT22;37886;53.174;6.368;2022-09-09T07:06:30;14.90;99.90
51839;DHT22;37886;53.174;6.368;2022-09-09T07:09:02;14.90;99.90
51839;DHT22;37886;53.174;6.368;2022-09-09T07:11:36;14.90;99.90
51839;DHT22;37886;53.174;6.368;2022-09-09T07:14:02;14.90;99.90
51839;DHT22;37886;53.174;6.368;2022-09-09T07:16:28;15.00;99.90
51839;DHT22;37886;53.174;6.368;2022-09-09T07:18:56;15.10;99.90
51839;DHT22;37886;53.174;6.368;2022-09-09T07:21:24;15.10;99.90
51839;DHT22;37886;53.174;6.368;2022-09-09T07:23:51;15.10;99.90
51839;DHT22;37886;53.174;6.368;2022-09-09T07:26:19;15.20;99.90
51839;DHT22;37886;53.174;6.368;2022-09-09T07:28:46;15.40;99.90
51839;DHT22;37886;53.174;6.368;2022-09-09T07:31:17;15.30;99.90
51839;DHT22;37886;53.174;6.368;2022-09-09T07:33:44;15.30;99.90
51839;DHT22;37886;53.174;6.368;2022-09-09T07:36:15;15.50;99.90
51839;DHT22;37886;53.174;6.368;2022-09-09T07:38:46;15.40;99.90
51839;DHT22;37886;53.174;6.368;2022-09-09T07:41:21;15.40;99.90
51839;DHT22;37886;53.174;6.368;2022-09-09T07:43:49;15.50;99.90
51839;DHT22;37886;53.174;6.368;2022-09-09T07:46:17;15.40;99.90
51839;DHT22;37886;53.174;6.368;2022-09-09T07:48:52;15.50;99.90
51839;DHT22;37886;53.174;6.368;2022-09-09T07:51:21;15.70;99.90
51839;DHT22;37886;53.174;6.368;2022-09-09T07:53:51;15.70;99.90
51839;DHT22;37886;53.174;6.368;2022-09-09T07:56:18;15.70;99.90
51839;DHT22;37886;53.174;6.368;2022-09-09T07:58:48;15.70;99.90
51839;DHT22;37886;53.174;6.368;2022-09-09T08:01:24;15.80;99.90
51839;DHT22;37886;53.174;6.368;2022-09-09T08:03:59;16.00;99.90
51839;DHT22;37886;53.174;6.368;2022-09-09T08:06:37;15.80;99.90
51839;DHT22;37886;53.174;6.368;2022-09-09T08:09:03;15.80;99.90
51839;DHT22;37886;53.174;6.368;2022-09-09T08:11:30;15.90;99.90
51839;DHT22;37886;53.174;6.368;2022-09-09T08:13:56;16.00;99.90
51839;DHT22;37886;53.174;6.368;2022-09-09T08:16:27;16.10;99.90
51839;DHT22;37886;53.174;6.368;2022-09-09T08:18:53;16.10;99.90
51839;DHT22;37886;53.174;6.368;2022-09-09T08:21:25;16.20;99.90
51839;DHT22;37886;53.174;6.368;2022-09-09T08:23:54;16.30;99.90
51839;DHT22;37886;53.174;6.368;2022-09-09T08:26:26;16.20;99.90
51839;DHT22;37886;53.174;6.368;2022-09-09T08:28:55;16.20;99.90
51839;DHT22;37886;53.174;6.368;2022-09-09T08:31:26;16.20;99.90
51839;DHT22;37886;53.174;6.368;2022-09-09T08:33:54;16.40;99.90
51839;DHT22;37886;53.174;6.368;2022-09-09T08:36:22;16.40;99.90
51839;DHT22;37886;53.174;6.368;2022-09-09T08:38:53;16.40;99.90
51839;DHT22;37886;53.174;6.368;2022-09-09T08:44:04;16.50;99.90
51839;DHT22;37886;53.174;6.368;2022-09-09T08:51:53;16.90;99.90
51839;DHT22;37886;53.174;6.368;2022-09-09T08:54:21;17.00;99.90
51839;DHT22;37886;53.174;6.368;2022-09-09T08:56:47;17.10;99.90
51839;DHT22;37886;53.174;6.368;2022-09-09T08:59:17;17.30;99.90
51839;DHT22;37886;53.174;6.368;2022-09-09T09:01:56;17.30;99.90
51839;DHT22;37886;53.174;6.368;2022-09-09T09:07:11;17.70;99.90
51839;DHT22;37886;53.174;6.368;2022-09-09T09:12:27;18.30;99.90
51839;DHT22;37886;53.174;6.368;2022-09-09T09:14:54;18.60;99.90
51839;DHT22;37886;53.174;6.368;2022-09-09T09:17:26;18.30;99.90
51839;DHT22;37886;53.174;6.368;2022-09-09T09:19:53;18.50;99.90
51839;DHT22;37886;53.174;6.368;2022-09-09T09:22:50;18.30;99.90
51839;DHT22;37886;53.174;6.368;2022-09-09T09:25:19;18.20;99.90
51839;DHT22;37886;53.174;6.368;2022-09-09T09:28:29;18.30;99.90
51839;DHT22;37886;53.174;6.368;2022-09-09T09:31:01;18.20;99.90
51839;DHT22;37886;53.174;6.368;2022-09-09T09:36:12;17.90;99.90
51839;DHT22;37886;53.174;6.368;2022-09-09T09:38:58;17.90;99.90
51839;DHT22;37886;53.174;6.368;2022-09-09T09:41:55;17.90;99.90
51839;DHT22;37886;53.174;6.368;2022-09-09T09:44:30;17.90;99.90
51839;DHT22;37886;53.174;6.368;2022-09-09T09:47:26;18.10;99.90
51839;DHT22;37886;53.174;6.368;2022-09-09T09:49:57;18.20;99.90
51839;DHT22;37886;53.174;6.368;2022-09-09T09:52:31;18.20;99.90
51839;DHT22;37886;53.174;6.368;2022-09-09T09:55:03;18.00;99.90
51839;DHT22;37886;53.174;6.368;2022-09-09T09:57:31;18.00;99.90
51839;DHT22;37886;53.174;6.368;2022-09-09T10:00:04;18.10;99.90
51839;DHT22;37886;53.174;6.368;2022-09-09T10:02:39;18.10;99.90
51839;DHT22;37886;53.174;6.368;2022-09-09T10:05:17;17.70;99.90
51839;DHT22;37886;53.174;6.368;2022-09-09T10:07:44;17.60;99.90
51839;DHT22;37886;53.174;6.368;2022-09-09T10:10:26;17.70;99.90
51839;DHT22;37886;53.174;6.368;2022-09-09T10:21:20;17.80;99.90
51839;DHT22;37886;53.174;6.368;2022-09-09T10:40:33;18.30;99.90
51839;DHT22;37886;53.174;6.368;2022-09-09T10:49:16;18.90;99.90
51839;DHT22;37886;53.174;6.368;2022-09-09T10:51:56;19.00;99.90
51839;DHT22;37886;53.174;6.368;2022-09-09T10:54:46;19.00;99.90
51839;DHT22;37886;53.174;6.368;2022-09-09T10:59:56;19.20;99.90
51839;DHT22;37886;53.174;6.368;2022-09-09T11:02:29;19.10;99.90
51839;DHT22;37886;53.174;6.368;2022-09-09T11:07:56;19.50;99.90
51839;DHT22;37886;53.174;6.368;2022-09-09T11:13:24;19.50;99.90
51839;DHT22;37886;53.174;6.368;2022-09-09T11:15:57;19.50;99.90
51839;DHT22;37886;53.174;6.368;2022-09-09T11:18:25;20.20;99.90
51839;DHT22;37886;53.174;6.368;2022-09-09T11:20:59;20.60;99.90
51839;DHT22;37886;53.174;6.368;2022-09-09T11:23:49;20.70;99.90
51839;DHT22;37886;53.174;6.368;2022-09-09T11:26:21;20.60;99.90
51839;DHT22;37886;53.174;6.368;2022-09-09T11:29:11;21.10;99.90
51839;DHT22;37886;53.174;6.368;2022-09-09T11:32:08;21.20;99.90
51839;DHT22;37886;53.174;6.368;2022-09-09T11:34:54;20.90;99.90
51839;DHT22;37886;53.174;6.368;2022-09-09T11:40:58;20.20;99.90
51839;DHT22;37886;53.174;6.368;2022-09-09T11:43:31;20.20;99.90
51839;DHT22;37886;53.174;6.368;2022-09-09T11:46:00;20.20;99.90
51839;DHT22;37886;53.174;6.368;2022-09-09T11:48:39;20.70;99.90
51839;DHT22;37886;53.174;6.368;2022-09-09T11:51:13;21.10;99.90
51839;DHT22;37886;53.174;6.368;2022-09-09T11:53:56;21.50;99.90
51839;DHT22;37886;53.174;6.368;2022-09-09T11:56:41;21.30;99.90
51839;DHT22;37886;53.174;6.368;2022-09-09T12:01:54;21.00;99.90
51839;DHT22;37886;53.174;6.368;2022-09-09T12:09:24;20.30;99.90
51839;DHT22;37886;53.174;6.368;2022-09-09T12:11:51;20.80;99.90
51839;DHT22;37886;53.174;6.368;2022-09-09T12:17:23;20.70;99.90
51839;DHT22;37886;53.174;6.368;2022-09-09T12:20:09;20.40;99.90
51839;DHT22;37886;53.174;6.368;2022-09-09T12:33:18;20.40;99.90
51839;DHT22;37886;53.174;6.368;2022-09-09T12:35:48;21.40;99.90
51839;DHT22;37886;53.174;6.368;2022-09-09T12:38:27;21.10;99.90
51839;DHT22;37886;53.174;6.368;2022-09-09T12:40:57;22.00;99.90
51839;DHT22;37886;53.174;6.368;2022-09-09T12:43:25;21.80;99.90
51839;DHT22;37886;53.174;6.368;2022-09-09T12:45:54;21.30;99.90
51839;DHT22;37886;53.174;6.368;2022-09-09T12:48:35;21.70;99.90
51839;DHT22;37886;53.174;6.368;2022-09-09T12:51:02;21.50;99.90
51839;DHT22;37886;53.174;6.368;2022-09-09T12:53:37;22.40;99.90
51839;DHT22;37886;53.174;6.368;2022-09-09T12:56:09;22.30;99.90
51839;DHT22;37886;53.174;6.368;2022-09-09T12:58:38;21.40;99.90
51839;DHT22;37886;53.174;6.368;2022-09-09T13:01:06;21.10;99.90
51839;DHT22;37886;53.174;6.368;2022-09-09T13:03:44;21.80;99.90
51839;DHT22;37886;53.174;6.368;2022-09-09T13:06:13;22.50;99.90
51839;DHT22;37886;53.174;6.368;2022-09-09T13:08:43;22.50;99.90
51839;DHT22;37886;53.174;6.368;2022-09-09T13:11:17;23.00;99.90
51839;DHT22;37886;53.174;6.368;2022-09-09T13:13:51;23.30;99.90
51839;DHT22;37886;53.174;6.368;2022-09-09T13:16:32;23.50;99.90
51839;DHT22;37886;53.174;6.368;2022-09-09T13:19:09;22.70;99.90
51839;DHT22;37886;53.174;6.368;2022-09-09T13:21:37;21.90;99.90
51839;DHT22;37886;53.174;6.368;2022-09-09T13:24:05;21.90;99.90
51839;DHT22;37886;53.174;6.368;2022-09-09T13:26:34;21.70;99.90
51839;DHT22;37886;53.174;6.368;2022-09-09T13:29:18;21.30;99.90
51839;DHT22;37886;53.174;6.368;2022-09-09T13:31:44;21.00;99.90
51839;DHT22;37886;53.174;6.368;2022-09-09T13:34:22;21.00;99.90
51839;DHT22;37886;53.174;6.368;2022-09-09T13:36:54;20.90;99.90
51839;DHT22;37886;53.174;6.368;2022-09-09T13:39:22;20.90;99.90
51839;DHT22;37886;53.174;6.368;2022-09-09T13:41:48;20.40;99.90
51839;DHT22;37886;53.174;6.368;2022-09-09T13:44:20;20.20;99.90
51839;DHT22;37886;53.174;6.368;2022-09-09T13:47:06;20.10;99.90
51839;DHT22;37886;53.174;6.368;2022-09-09T13:49:32;19.80;99.90
51839;DHT22;37886;53.174;6.368;2022-09-09T13:52:16;19.70;99.90
51839;DHT22;37886;53.174;6.368;2022-09-09T13:54:50;20.90;99.90
51839;DHT22;37886;53.174;6.368;2022-09-09T13:57:24;20.60;99.90
51839;DHT22;37886;53.174;6.368;2022-09-09T13:59:51;21.20;99.90
51839;DHT22;37886;53.174;6.368;2022-09-09T14:02:18;21.40;99.90
51839;DHT22;37886;53.174;6.368;2022-09-09T14:04:45;20.30;99.90
51839;DHT22;37886;53.174;6.368;2022-09-09T14:07:15;19.60;99.90
51839;DHT22;37886;53.174;6.368;2022-09-09T14:09:42;19.50;99.90
51839;DHT22;37886;53.174;6.368;2022-09-09T14:12:13;19.90;99.90
51839;DHT22;37886;53.174;6.368;2022-09-09T14:14:41;19.70;99.90
51839;DHT22;37886;53.174;6.368;2022-09-09T14:17:08;19.50;99.90
51839;DHT22;37886;53.174;6.368;2022-09-09T14:19:34;19.30;99.90
51839;DHT22;37886;53.174;6.368;2022-09-09T14:22:00;19.20;99.90
51839;DHT22;37886;53.174;6.368;2022-09-09T14:24:27;19.10;99.90
51839;DHT22;37886;53.174;6.368;2022-09-09T14:26:53;19.20;99.90
51839;DHT22;37886;53.174;6.368;2022-09-09T14:29:19;19.20;99.90
51839;DHT22;37886;53.174;6.368;2022-09-09T14:31:45;19.10;99.90
51839;DHT22;37886;53.174;6.368;2022-09-09T14:34:11;18.80;99.90
51839;DHT22;37886;53.174;6.368;2022-09-09T14:36:37;18.70;99.90
51839;DHT22;37886;53.174;6.368;2022-09-09T14:39:04;18.50;99.90
51839;DHT22;37886;53.174;6.368;2022-09-09T14:41:30;18.50;99.90
51839;DHT22;37886;53.174;6.368;2022-09-09T14:43:56;18.50;99.90
51839;DHT22;37886;53.174;6.368;2022-09-09T14:46:22;18.50;99.90
51839;DHT22;37886;53.174;6.368;2022-09-09T14:48:48;19.00;99.90
51839;DHT22;37886;53.174;6.368;2022-09-09T14:51:17;19.60;99.90
51839;DHT22;37886;53.174;6.368;2022-09-09T14:53:43;22.00;99.90
51839;DHT22;37886;53.174;6.368;2022-09-09T14:56:15;23.60;99.90
51839;DHT22;37886;53.174;6.368;2022-09-09T14:58:40;24.10;99.90
51839;DHT22;37886;53.174;6.368;2022-09-09T15:01:12;25.50;99.90
51839;DHT22;37886;53.174;6.368;2022-09-09T15:03:39;25.70;99.90
51839;DHT22;37886;53.174;6.368;2022-09-09T15:06:08;26.20;99.90
51839;DHT22;37886;53.174;6.368;2022-09-09T15:08:36;26.30;99.90
51839;DHT22;37886;53.174;6.368;2022-09-09T15:11:03;25.90;99.90
51839;DHT22;37886;53.174;6.368;2022-09-09T15:13:29;25.80;99.90
51839;DHT22;37886;53.174;6.368;2022-09-09T15:15:55;23.90;99.90
51839;DHT22;37886;53.174;6.368;2022-09-09T15:18:21;22.00;99.90
51839;DHT22;37886;53.174;6.368;2022-09-09T15:20:46;21.00;99.90
51839;DHT22;37886;53.174;6.368;2022-09-09T15:23:13;20.60;99.90
51839;DHT22;37886;53.174;6.368;2022-09-09T15:25:51;20.40;99.90
51839;DHT22;37886;53.174;6.368;2022-09-09T15:28:17;20.20;99.90
51839;DHT22;37886;53.174;6.368;2022-09-09T15:30:43;20.20;99.90
51839;DHT22;37886;53.174;6.368;2022-09-09T15:33:10;19.80;99.90
51839;DHT22;37886;53.174;6.368;2022-09-09T15:35:36;19.80;99.90
51839;DHT22;37886;53.174;6.368;2022-09-09T15:38:02;19.90;99.90
51839;DHT22;37886;53.174;6.368;2022-09-09T15:40:30;20.10;99.90
51839;DHT22;37886;53.174;6.368;2022-09-09T15:42:58;20.00;99.90
51839;DHT22;37886;53.174;6.368;2022-09-09T15:45:24;19.80;99.90
51839;DHT22;37886;53.174;6.368;2022-09-09T15:47:50;19.80;99.90
51839;DHT22;37886;53.174;6.368;2022-09-09T15:50:15;19.90;99.90
51839;DHT22;37886;53.174;6.368;2022-09-09T15:52:42;19.90;99.90
51839;DHT22;37886;53.174;6.368;2022-09-09T15:55:07;19.80;99.90
51839;DHT22;37886;53.174;6.368;2022-09-09T15:57:34;19.60;99.90
51839;DHT22;37886;53.174;6.368;2022-09-09T16:00:00;19.50;99.90
51839;DHT22;37886;53.174;6.368;2022-09-09T16:02:26;19.10;99.90
51839;DHT22;37886;53.174;6.368;2022-09-09T16:04:52;18.80;99.90
51839;DHT22;37886;53.174;6.368;2022-09-09T16:07:18;18.10;99.90
51839;DHT22;37886;53.174;6.368;2022-09-09T16:09:47;17.80;99.90
51839;DHT22;37886;53.174;6.368;2022-09-09T16:12:13;17.60;99.90
51839;DHT22;37886;53.174;6.368;2022-09-09T16:14:39;17.50;99.90
51839;DHT22;37886;53.174;6.368;2022-09-09T16:17:06;17.50;99.90
51839;DHT22;37886;53.174;6.368;2022-09-09T16:19:32;17.70;99.90
51839;DHT22;37886;53.174;6.368;2022-09-09T16:22:00;17.50;99.90
51839;DHT22;37886;53.174;6.368;2022-09-09T16:24:26;17.50;99.90
51839;DHT22;37886;53.174;6.368;2022-09-09T16:26:54;17.50;99.90
51839;DHT22;37886;53.174;6.368;2022-09-09T16:29:21;17.60;99.90
51839;DHT22;37886;53.174;6.368;2022-09-09T16:31:48;17.60;99.90
51839;DHT22;37886;53.174;6.368;2022-09-09T16:34:15;17.50;99.90
51839;DHT22;37886;53.174;6.368;2022-09-09T16:36:43;17.20;99.90
51839;DHT22;37886;53.174;6.368;2022-09-09T16:39:12;17.10;99.90
51839;DHT22;37886;53.174;6.368;2022-09-09T16:41:39;17.20;99.90
51839;DHT22;37886;53.174;6.368;2022-09-09T16:44:07;17.20;99.90
51839;DHT22;37886;53.174;6.368;2022-09-09T16:46:35;17.10;99.90
51839;DHT22;37886;53.174;6.368;2022-09-09T16:49:03;17.20;99.90
51839;DHT22;37886;53.174;6.368;2022-09-09T16:51:34;17.30;99.90
51839;DHT22;37886;53.174;6.368;2022-09-09T16:54:02;17.20;99.90
51839;DHT22;37886;53.174;6.368;2022-09-09T16:56:30;17.20;99.90
51839;DHT22;37886;53.174;6.368;2022-09-09T16:59:00;17.20;99.90
51839;DHT22;37886;53.174;6.368;2022-09-09T17:01:28;17.00;99.90
51839;DHT22;37886;53.174;6.368;2022-09-09T17:04:00;16.90;99.90
51839;DHT22;37886;53.174;6.368;2022-09-09T17:06:30;16.90;99.90
51839;DHT22;37886;53.174;6.368;2022-09-09T17:08:57;16.90;99.90
51839;DHT22;37886;53.174;6.368;2022-09-09T17:11:23;16.80;99.90
51839;DHT22;37886;53.174;6.368;2022-09-09T17:13:50;16.80;99.90
51839;DHT22;37886;53.174;6.368;2022-09-09T17:16:18;16.80;99.90
51839;DHT22;37886;53.174;6.368;2022-09-09T17:18:45;16.80;99.90
51839;DHT22;37886;53.174;6.368;2022-09-09T17:21:13;16.80;99.90
51839;DHT22;37886;53.174;6.368;2022-09-09T17:23:40;16.80;99.90
51839;DHT22;37886;53.174;6.368;2022-09-09T17:26:09;16.70;99.90
51839;DHT22;37886;53.174;6.368;2022-09-09T17:28:36;16.70;99.90
51839;DHT22;37886;53.174;6.368;2022-09-09T17:31:05;16.70;99.90
51839;DHT22;37886;53.174;6.368;2022-09-09T17:33:37;16.60;99.90
51839;DHT22;37886;53.174;6.368;2022-09-09T17:36:09;16.60;99.90
51839;DHT22;37886;53.174;6.368;2022-09-09T17:38:34;16.70;99.90
51839;DHT22;37886;53.174;6.368;2022-09-09T17:41:09;16.70;99.90
51839;DHT22;37886;53.174;6.368;2022-09-09T17:43:36;16.70;99.90
51839;DHT22;37886;53.174;6.368;2022-09-09T17:48:40;16.60;99.90
51839;DHT22;37886;53.174;6.368;2022-09-09T17:51:08;16.60;99.90
51839;DHT22;37886;53.174;6.368;2022-09-09T17:53:39;16.60;99.90
51839;DHT22;37886;53.174;6.368;2022-09-09T17:56:06;16.60;99.90